createdAt,value
2018-12-31T00:02:10.025Z,11.47
2018-12-31T00:04:20.863Z,11.97
2018-12-31T00:06:31.679Z,11.93
2018-12-31T00:08:42.503Z,11.13
2018-12-31T00:10:53.372Z,10.53
2018-12-31T00:13:04.150Z,11.87
2018-12-31T00:15:14.974Z,11.17
2018-12-31T00:17:25.880Z,11.57
2018-12-31T00:19:36.637Z,12.33
2018-12-31T00:21:47.430Z,12.77
2018-12-31T00:23:58.235Z,12.10
2018-12-31T00:26:09.058Z,12.27
2018-12-31T00:28:19.878Z,11.73
2018-12-31T00:30:30.713Z,11.30
2018-12-31T00:32:41.572Z,11.57
2018-12-31T00:34:52.360Z,10.57
2018-12-31T00:37:03.176Z,11.80
2018-12-31T00:39:13.977Z,10.90
2018-12-31T00:41:24.783Z,10.73
2018-12-31T00:43:35.615Z,10.57
2018-12-31T00:45:46.456Z,8.97
2018-12-31T00:47:57.277Z,9.27
2018-12-31T00:50:08.090Z,9.43
2018-12-31T00:52:18.929Z,9.40
2018-12-31T00:54:29.722Z,7.87
2018-12-31T00:56:40.653Z,9.47
2018-12-31T00:58:51.504Z,8.63
2018-12-31T01:01:02.400Z,9.70
2018-12-31T01:03:13.235Z,8.00
2018-12-31T01:05:24.067Z,8.40
2018-12-31T01:07:34.916Z,7.40
2018-12-31T01:12:18.219Z,7.27
2018-12-31T01:14:29.029Z,7.47
2018-12-31T01:16:39.822Z,8.60
2018-12-31T01:18:50.648Z,8.70
2018-12-31T01:21:01.453Z,7.17
2018-12-31T01:23:12.279Z,7.37
2018-12-31T01:25:23.065Z,7.67
2018-12-31T01:27:33.877Z,8.00
2018-12-31T01:29:44.687Z,7.97
2018-12-31T01:31:55.521Z,8.53
2018-12-31T01:34:06.434Z,8.07
2018-12-31T01:36:17.240Z,7.73
2018-12-31T01:38:28.088Z,7.53
2018-12-31T01:40:38.897Z,7.27
2018-12-31T01:42:49.715Z,7.10
2018-12-31T01:45:00.532Z,7.63
2018-12-31T01:47:11.342Z,6.73
2018-12-31T01:49:22.173Z,7.00
2018-12-31T01:51:32.999Z,6.80
2018-12-31T01:53:43.819Z,6.50
2018-12-31T01:55:54.621Z,5.87
2018-12-31T01:58:05.428Z,6.17
2018-12-31T02:00:16.250Z,5.17
2018-12-31T02:02:27.048Z,6.90
2018-12-31T02:04:37.869Z,6.10
2018-12-31T02:06:48.707Z,5.97
2018-12-31T02:08:59.540Z,6.20
2018-12-31T02:11:10.342Z,5.83
2018-12-31T02:13:21.130Z,6.37
2018-12-31T02:15:31.976Z,5.73
2018-12-31T02:17:42.767Z,5.67
2018-12-31T02:19:53.588Z,5.83
2018-12-31T02:22:04.391Z,6.03
2018-12-31T02:24:15.209Z,6.17
2018-12-31T02:26:26.039Z,6.07
2018-12-31T02:28:36.853Z,5.47
2018-12-31T02:30:47.672Z,5.93
2018-12-31T02:32:58.487Z,5.87
2018-12-31T02:35:09.296Z,5.27
2018-12-31T02:37:20.200Z,6.03
2018-12-31T02:39:31.000Z,6.40
2018-12-31T02:41:41.812Z,5.10
2018-12-31T02:43:52.629Z,5.90
2018-12-31T02:46:03.471Z,5.63
2018-12-31T02:48:14.373Z,5.90
2018-12-31T02:50:25.181Z,5.87
2018-12-31T02:52:35.988Z,5.90
2018-12-31T02:54:46.787Z,5.03
2018-12-31T02:56:57.601Z,5.73
2018-12-31T02:59:08.404Z,6.00
2018-12-31T03:01:19.222Z,5.70
2018-12-31T03:03:30.021Z,5.80
2018-12-31T03:05:40.837Z,5.63
2018-12-31T03:07:51.676Z,6.97
2018-12-31T03:10:44.153Z,6.83
2018-12-31T03:12:55.055Z,6.37
2018-12-31T03:15:05.858Z,6.23
2018-12-31T03:17:16.679Z,6.70
2018-12-31T03:19:27.457Z,7.00
2018-12-31T03:21:38.269Z,6.10
2018-12-31T03:23:49.074Z,5.50
2018-12-31T03:25:59.902Z,6.27
2018-12-31T03:28:10.715Z,6.10
2018-12-31T03:30:21.514Z,5.23
2018-12-31T03:32:32.336Z,5.10
2018-12-31T03:34:43.183Z,5.07
2018-12-31T03:36:53.977Z,4.93
2018-12-31T03:39:04.890Z,4.80
2018-12-31T03:41:15.697Z,4.63
2018-12-31T03:43:26.510Z,4.80
2018-12-31T03:45:37.303Z,5.17
2018-12-31T03:47:48.119Z,4.83
2018-12-31T03:49:58.908Z,5.00
2018-12-31T03:52:09.709Z,5.17
2018-12-31T03:54:20.533Z,4.60
2018-12-31T03:56:31.335Z,4.93
2018-12-31T03:58:42.143Z,4.57
2018-12-31T04:00:52.976Z,4.40
2018-12-31T04:03:03.774Z,4.57
2018-12-31T04:05:14.588Z,4.47
2018-12-31T04:07:25.523Z,4.30
2018-12-31T04:09:36.522Z,4.77
2018-12-31T04:11:47.361Z,4.20
2018-12-31T04:13:58.167Z,4.33
2018-12-31T04:16:08.953Z,4.40
2018-12-31T04:18:19.801Z,4.53
2018-12-31T04:20:30.622Z,4.60
2018-12-31T04:22:41.445Z,4.70
2018-12-31T04:24:52.266Z,4.77
2018-12-31T04:27:03.165Z,4.40
2018-12-31T04:29:13.969Z,4.63
2018-12-31T04:31:24.815Z,3.80
2018-12-31T04:33:35.621Z,4.90
2018-12-31T04:35:46.438Z,4.17
2018-12-31T04:37:57.236Z,4.63
2018-12-31T04:40:08.121Z,4.70
2018-12-31T04:42:18.851Z,4.07
2018-12-31T04:44:29.656Z,4.30
2018-12-31T04:46:40.488Z,4.60
2018-12-31T04:48:51.301Z,4.47
2018-12-31T04:51:02.130Z,4.53
2018-12-31T04:53:12.927Z,4.97
2018-12-31T04:55:23.738Z,4.37
2018-12-31T04:57:34.648Z,4.60
2018-12-31T04:59:45.437Z,4.03
2018-12-31T05:01:56.254Z,5.00
2018-12-31T05:04:07.080Z,4.70
2018-12-31T05:06:17.907Z,4.43
2018-12-31T05:08:28.727Z,4.37
2018-12-31T05:10:39.637Z,3.90
2018-12-31T05:12:50.447Z,4.00
2018-12-31T05:15:01.245Z,4.17
2018-12-31T05:17:12.076Z,4.80
2018-12-31T05:19:22.882Z,4.10
2018-12-31T05:21:33.688Z,4.03
2018-12-31T05:23:44.506Z,3.90
2018-12-31T05:25:55.322Z,3.57
2018-12-31T05:28:06.136Z,4.10
2018-12-31T05:30:16.924Z,4.20
2018-12-31T05:32:27.746Z,4.00
2018-12-31T05:34:38.557Z,3.80
2018-12-31T05:36:49.408Z,3.73
2018-12-31T05:39:00.212Z,3.40
2018-12-31T05:41:10.996Z,3.87
2018-12-31T05:43:21.848Z,4.33
2018-12-31T05:45:32.730Z,4.40
2018-12-31T05:47:43.554Z,3.37
2018-12-31T05:49:54.387Z,3.40
2018-12-31T05:52:05.185Z,4.43
2018-12-31T05:54:16.021Z,3.83
2018-12-31T05:56:26.823Z,4.10
2018-12-31T05:58:37.693Z,4.00
2018-12-31T06:00:48.531Z,3.67
2018-12-31T06:02:59.365Z,5.00
2018-12-31T06:05:10.220Z,3.73
2018-12-31T06:07:21.027Z,4.80
2018-12-31T06:09:31.846Z,4.97
2018-12-31T06:11:42.634Z,4.43
2018-12-31T06:13:53.453Z,4.50
2018-12-31T06:16:04.260Z,4.60
2018-12-31T06:18:15.059Z,5.00
2018-12-31T06:20:25.894Z,4.93
2018-12-31T06:22:36.710Z,5.23
2018-12-31T06:24:47.519Z,4.77
2018-12-31T06:26:58.313Z,3.67
2018-12-31T06:29:09.101Z,4.07
2018-12-31T06:31:19.942Z,5.20
2018-12-31T06:33:30.785Z,4.90
2018-12-31T06:38:20.912Z,4.80
2018-12-31T06:40:31.732Z,4.90
2018-12-31T06:42:42.513Z,4.47
2018-12-31T06:44:53.323Z,4.97
2018-12-31T06:47:04.146Z,4.80
2018-12-31T06:49:14.956Z,5.40
2018-12-31T06:51:25.783Z,5.10
2018-12-31T06:53:36.589Z,4.77
2018-12-31T06:55:47.392Z,4.77
2018-12-31T06:57:58.228Z,5.40
2018-12-31T07:00:09.154Z,5.17
2018-12-31T07:02:19.967Z,5.20
2018-12-31T07:04:30.762Z,5.17
2018-12-31T07:07:23.224Z,5.50
2018-12-31T07:09:34.097Z,5.13
2018-12-31T07:11:44.951Z,6.27
2018-12-31T07:13:55.745Z,6.30
2018-12-31T07:16:06.558Z,6.33
2018-12-31T07:18:17.390Z,6.10
2018-12-31T07:20:28.198Z,6.40
2018-12-31T07:22:39.153Z,5.73
2018-12-31T07:24:49.954Z,6.17
2018-12-31T07:27:00.785Z,5.70
2018-12-31T07:29:11.610Z,5.43
2018-12-31T07:31:22.474Z,5.67
2018-12-31T07:33:33.236Z,6.70
2018-12-31T07:35:44.104Z,6.43
2018-12-31T07:37:54.955Z,6.20
2018-12-31T07:40:05.756Z,6.27
2018-12-31T07:42:16.583Z,6.10
2018-12-31T07:44:27.378Z,6.30
2018-12-31T07:46:38.188Z,6.53
2018-12-31T07:48:49.007Z,7.20
2018-12-31T07:50:59.840Z,6.70
2018-12-31T07:53:10.671Z,7.20
2018-12-31T07:55:21.501Z,6.50
2018-12-31T07:57:32.321Z,6.03
2018-12-31T07:59:43.116Z,6.60
2018-12-31T08:01:53.942Z,6.70
2018-12-31T08:04:04.773Z,6.00
2018-12-31T08:06:15.579Z,5.37
2018-12-31T08:08:26.440Z,5.50
2018-12-31T08:10:37.239Z,5.00
2018-12-31T08:12:48.069Z,5.60
2018-12-31T08:14:58.901Z,5.47
2018-12-31T08:17:09.697Z,4.93
2018-12-31T08:19:20.514Z,4.43
2018-12-31T08:21:31.312Z,5.60
2018-12-31T08:23:42.148Z,4.47
2018-12-31T08:25:53.001Z,5.27
2018-12-31T08:28:03.865Z,4.60
2018-12-31T08:30:14.698Z,4.00
2018-12-31T08:32:25.494Z,4.27
2018-12-31T08:34:36.356Z,4.63
2018-12-31T08:36:47.131Z,4.07
2018-12-31T08:38:57.941Z,4.30
2018-12-31T08:41:08.772Z,3.43
2018-12-31T08:43:19.663Z,3.67
2018-12-31T08:45:30.501Z,3.90
2018-12-31T08:47:41.304Z,3.43
2018-12-31T08:49:52.136Z,4.00
2018-12-31T08:52:22.829Z,3.20
2018-12-31T08:54:33.636Z,3.23
2018-12-31T08:56:44.502Z,3.27
2018-12-31T08:58:55.297Z,3.10
2018-12-31T09:01:06.144Z,2.70
2018-12-31T09:03:16.962Z,3.00
2018-12-31T09:05:27.906Z,3.03
2018-12-31T09:07:38.723Z,3.00
2018-12-31T09:09:49.516Z,3.00
2018-12-31T09:12:00.338Z,3.47
2018-12-31T09:14:11.135Z,3.00
2018-12-31T09:16:21.964Z,2.50
2018-12-31T09:18:32.764Z,3.00
2018-12-31T09:20:43.612Z,2.77
2018-12-31T09:23:01.891Z,2.70
2018-12-31T09:25:12.699Z,3.23
2018-12-31T09:27:23.515Z,3.40
2018-12-31T09:29:34.351Z,3.27
2018-12-31T09:31:45.180Z,2.90
2018-12-31T09:33:56.015Z,2.90
2018-12-31T09:36:06.816Z,3.13
2018-12-31T09:38:17.661Z,3.00
2018-12-31T09:40:28.482Z,3.30
2018-12-31T09:42:39.319Z,3.53
2018-12-31T09:44:50.157Z,3.80
2018-12-31T09:47:00.969Z,4.00
2018-12-31T09:49:11.789Z,3.87
2018-12-31T09:51:22.591Z,3.60
2018-12-31T09:53:33.430Z,3.73
2018-12-31T09:55:44.276Z,4.07
2018-12-31T09:57:55.067Z,4.43
2018-12-31T10:00:47.584Z,4.03
2018-12-31T10:02:58.402Z,4.10
2018-12-31T10:05:09.226Z,4.40
2018-12-31T10:07:20.077Z,4.03
2018-12-31T10:09:30.910Z,3.77
2018-12-31T10:11:41.710Z,4.70
2018-12-31T10:13:52.522Z,4.60
2018-12-31T10:16:03.371Z,4.83
2018-12-31T10:18:14.204Z,4.97
2018-12-31T10:20:25.042Z,4.67
2018-12-31T10:22:35.854Z,4.73
2018-12-31T10:24:46.682Z,5.30
2018-12-31T10:26:57.503Z,5.30
2018-12-31T10:29:08.335Z,5.13
2018-12-31T10:31:19.159Z,5.00
2018-12-31T10:33:30.068Z,4.60
2018-12-31T10:35:40.906Z,5.23
2018-12-31T10:37:51.715Z,4.40
2018-12-31T10:40:24.310Z,5.27
2018-12-31T10:42:35.134Z,4.70
2018-12-31T10:45:07.732Z,4.93
2018-12-31T10:47:18.560Z,4.77
2018-12-31T10:49:29.378Z,5.27
2018-12-31T10:51:40.310Z,5.47
2018-12-31T10:53:51.103Z,5.10
2018-12-31T10:56:01.932Z,5.70
2018-12-31T10:58:12.729Z,5.53
2018-12-31T11:00:23.562Z,5.00
2018-12-31T11:02:34.391Z,5.53
2018-12-31T11:04:45.190Z,5.83
2018-12-31T11:06:56.111Z,6.60
2018-12-31T11:09:06.945Z,6.20
2018-12-31T11:11:17.821Z,5.20
2018-12-31T11:13:28.606Z,5.37
2018-12-31T11:15:39.454Z,5.33
2018-12-31T11:17:50.291Z,5.57
2018-12-31T11:20:01.192Z,5.47
2018-12-31T11:22:12.014Z,5.50
2018-12-31T11:24:22.798Z,5.80
2018-12-31T11:26:33.629Z,5.57
2018-12-31T11:28:44.470Z,5.57
2018-12-31T11:30:55.305Z,5.87
2018-12-31T11:33:06.147Z,5.70
2018-12-31T11:35:16.965Z,5.80
2018-12-31T11:37:34.421Z,5.57
2018-12-31T11:39:40.498Z,5.53
2018-12-31T11:41:51.332Z,5.33
2018-12-31T11:44:02.148Z,5.77
2018-12-31T11:46:12.953Z,5.40
2018-12-31T11:48:23.783Z,6.10
2018-12-31T11:50:34.796Z,6.20
2018-12-31T11:52:45.559Z,6.47
2018-12-31T11:54:56.404Z,6.17
2018-12-31T11:57:07.264Z,6.70
2018-12-31T11:59:18.105Z,6.20
2018-12-31T12:04:01.392Z,6.60
2018-12-31T12:06:12.187Z,7.37
2018-12-31T12:08:42.926Z,6.53
2018-12-31T12:10:54.074Z,7.07
2018-12-31T12:13:04.884Z,7.53
2018-12-31T12:15:15.724Z,6.67
2018-12-31T12:17:26.533Z,8.17
2018-12-31T12:19:37.347Z,7.33
2018-12-31T12:21:48.151Z,7.80
2018-12-31T12:23:58.945Z,7.23
2018-12-31T12:26:09.797Z,7.73
2018-12-31T12:28:20.600Z,7.67
2018-12-31T12:30:31.434Z,7.13
2018-12-31T12:32:42.229Z,7.33
2018-12-31T12:34:53.101Z,6.87
2018-12-31T12:37:04.023Z,6.87
2018-12-31T12:39:14.917Z,6.90
2018-12-31T12:41:25.869Z,6.90
2018-12-31T12:43:36.991Z,7.33
2018-12-31T12:45:47.848Z,7.10
2018-12-31T12:47:58.659Z,6.60
2018-12-31T12:50:09.493Z,6.43
2018-12-31T12:52:20.307Z,6.77
2018-12-31T12:54:31.154Z,7.03
2018-12-31T12:56:41.977Z,6.03
2018-12-31T12:58:53.046Z,6.57
2018-12-31T13:01:03.862Z,6.53
2018-12-31T13:03:14.667Z,6.87
2018-12-31T13:05:25.502Z,7.30
2018-12-31T13:07:36.359Z,7.07
2018-12-31T13:09:47.179Z,7.40
2018-12-31T13:11:57.992Z,7.97
2018-12-31T13:14:08.900Z,7.17
2018-12-31T13:16:20.039Z,6.83
2018-12-31T13:18:30.968Z,7.87
2018-12-31T13:21:01.671Z,8.03
2018-12-31T13:23:12.527Z,6.77
2018-12-31T13:25:25.234Z,6.60
2018-12-31T13:27:37.976Z,6.80
2018-12-31T13:29:48.807Z,6.57
2018-12-31T13:31:59.641Z,5.33
2018-12-31T13:34:10.439Z,5.40
2018-12-31T13:36:21.267Z,5.37
2018-12-31T13:38:32.113Z,5.13
2018-12-31T13:40:42.918Z,5.13
2018-12-31T13:42:53.743Z,6.23
2018-12-31T13:45:04.669Z,5.70
2018-12-31T13:47:15.512Z,5.50
2018-12-31T13:49:26.328Z,5.80
2018-12-31T13:51:37.171Z,5.17
2018-12-31T13:53:48.010Z,5.70
2018-12-31T13:55:58.824Z,6.50
2018-12-31T13:58:09.664Z,6.33
2018-12-31T14:00:22.432Z,6.70
2018-12-31T14:02:33.452Z,6.40
2018-12-31T14:04:44.268Z,6.63
2018-12-31T14:06:55.063Z,6.07
2018-12-31T14:09:05.900Z,5.97
2018-12-31T14:11:18.095Z,6.83
2018-12-31T14:13:29.449Z,7.10
2018-12-31T14:15:40.242Z,6.53
2018-12-31T14:17:51.108Z,6.70
2018-12-31T14:22:54.283Z,7.10
2018-12-31T14:25:05.217Z,8.17
2018-12-31T14:27:16.038Z,7.73
2018-12-31T14:29:26.891Z,7.90
2018-12-31T14:31:37.692Z,8.17
2018-12-31T14:33:48.522Z,8.17
2018-12-31T14:35:59.379Z,8.00
2018-12-31T14:38:10.301Z,6.83
2018-12-31T14:40:21.145Z,8.30
2018-12-31T14:42:31.945Z,7.40
2018-12-31T14:44:42.785Z,7.47
2018-12-31T14:46:53.614Z,8.97
2018-12-31T14:49:04.448Z,8.23
2018-12-31T14:51:15.392Z,7.27
2018-12-31T14:53:26.185Z,7.90
2018-12-31T14:55:37.365Z,7.37
2018-12-31T14:57:48.198Z,7.87
2018-12-31T14:59:59.038Z,8.40
2018-12-31T15:02:09.896Z,7.03
2018-12-31T15:04:20.713Z,8.63
2018-12-31T15:06:31.558Z,9.73
2018-12-31T15:08:42.369Z,9.43
2018-12-31T15:10:53.190Z,8.60
2018-12-31T15:13:04.025Z,8.10
2018-12-31T15:15:14.832Z,7.10
2018-12-31T15:17:25.665Z,8.10
2018-12-31T15:19:36.517Z,7.57
2018-12-31T15:21:47.332Z,8.03
2018-12-31T15:23:58.157Z,8.80
2018-12-31T15:26:09.002Z,7.50
2018-12-31T15:28:20.138Z,7.70
2018-12-31T15:30:30.952Z,9.80
2018-12-31T15:32:41.885Z,10.03
2018-12-31T15:34:52.684Z,9.63
2018-12-31T15:37:03.531Z,8.80
2018-12-31T15:39:14.416Z,9.20
2018-12-31T15:41:25.239Z,9.33
2018-12-31T15:43:36.087Z,8.03
2018-12-31T15:45:46.923Z,10.43
2018-12-31T15:47:57.766Z,9.27
2018-12-31T15:50:08.587Z,10.30
2018-12-31T15:52:19.396Z,11.07
2018-12-31T15:54:30.232Z,9.20
2018-12-31T15:56:41.045Z,8.67
2018-12-31T15:58:52.183Z,10.03
2018-12-31T16:01:03.026Z,8.33
2018-12-31T16:03:26.953Z,9.97
2018-12-31T16:05:38.127Z,9.33
2018-12-31T16:07:49.131Z,7.93
2018-12-31T16:10:00.015Z,8.77
2018-12-31T16:12:10.895Z,10.23
2018-12-31T16:14:21.714Z,11.03
2018-12-31T16:16:32.614Z,13.47
2018-12-31T16:18:43.506Z,81.57
2018-12-31T16:20:54.299Z,132.03
2018-12-31T16:23:05.119Z,50.37
2018-12-31T16:25:16.048Z,30.57
2018-12-31T16:27:26.868Z,22.83
2018-12-31T16:29:37.729Z,29.13
2018-12-31T16:31:48.546Z,27.37
2018-12-31T16:33:59.368Z,53.97
2018-12-31T16:36:12.159Z,43.50
2018-12-31T16:38:23.192Z,37.90
2018-12-31T16:40:34.012Z,29.20
2018-12-31T16:42:44.926Z,21.10
2018-12-31T16:44:55.763Z,14.67
2018-12-31T16:47:06.577Z,12.77
2018-12-31T16:49:17.418Z,13.10
2018-12-31T16:51:28.213Z,12.77
2018-12-31T16:53:39.031Z,14.23
2018-12-31T16:55:49.961Z,15.20
2018-12-31T16:58:00.804Z,14.37
2018-12-31T17:00:11.699Z,14.27
2018-12-31T17:02:22.536Z,13.00
2018-12-31T17:04:33.389Z,14.17
2018-12-31T17:06:44.170Z,13.27
2018-12-31T17:08:55.293Z,15.73
2018-12-31T17:11:06.151Z,12.03
2018-12-31T17:13:16.963Z,12.27
2018-12-31T17:15:27.766Z,17.43
2018-12-31T17:17:38.678Z,17.23
2018-12-31T17:19:49.476Z,69.67
2018-12-31T17:22:00.502Z,57.93
2018-12-31T17:24:11.300Z,35.57
2018-12-31T17:26:22.111Z,26.40
2018-12-31T17:28:32.936Z,21.00
2018-12-31T17:30:43.785Z,17.03
2018-12-31T17:32:54.583Z,15.57
2018-12-31T17:35:05.402Z,16.23
2018-12-31T17:37:18.115Z,18.20
2018-12-31T17:39:29.248Z,20.90
2018-12-31T17:41:40.080Z,21.27
2018-12-31T17:43:50.872Z,19.43
2018-12-31T17:46:01.693Z,18.70
2018-12-31T17:48:12.509Z,17.73
2018-12-31T17:50:23.392Z,17.07
2018-12-31T17:52:34.247Z,16.60
2018-12-31T17:54:45.063Z,19.03
2018-12-31T17:56:55.890Z,26.00
2018-12-31T17:59:06.765Z,25.07
2018-12-31T18:01:17.559Z,26.90
2018-12-31T18:03:28.398Z,23.33
2018-12-31T18:05:39.225Z,19.57
2018-12-31T18:07:50.262Z,20.47
2018-12-31T18:10:44.628Z,28.83
2018-12-31T18:12:55.459Z,32.00
2018-12-31T18:15:06.279Z,26.50
2018-12-31T18:17:17.083Z,19.77
2018-12-31T18:19:27.900Z,17.20
2018-12-31T18:21:38.693Z,17.00
2018-12-31T18:23:49.542Z,13.47
2018-12-31T18:26:00.360Z,14.90
2018-12-31T18:28:11.156Z,16.63
2018-12-31T18:30:23.886Z,14.80
2018-12-31T18:32:34.707Z,13.97
2018-12-31T18:34:45.524Z,14.60
2018-12-31T18:36:56.316Z,16.80
2018-12-31T18:39:07.256Z,17.03
2018-12-31T18:41:18.075Z,16.73
2018-12-31T18:43:28.859Z,17.23
2018-12-31T18:45:39.679Z,14.40
2018-12-31T18:47:50.486Z,17.07
2018-12-31T18:50:01.302Z,17.43
2018-12-31T18:52:12.109Z,16.70
2018-12-31T18:54:22.956Z,17.63
2018-12-31T18:56:33.797Z,19.23
2018-12-31T18:58:46.429Z,23.93
2018-12-31T19:00:57.354Z,18.03
2018-12-31T19:03:08.386Z,20.43
2018-12-31T19:05:19.209Z,26.80
2018-12-31T19:07:30.014Z,20.03
2018-12-31T19:09:40.831Z,16.60
2018-12-31T19:11:51.643Z,19.67
2018-12-31T19:14:03.932Z,17.77
2018-12-31T19:16:15.174Z,18.43
2018-12-31T19:18:25.973Z,18.73
2018-12-31T19:20:36.873Z,18.73
2018-12-31T19:22:47.735Z,19.30
2018-12-31T19:24:58.535Z,21.23
2018-12-31T19:27:09.409Z,18.37
2018-12-31T19:29:20.223Z,20.50
2018-12-31T19:31:32.970Z,17.57
2018-12-31T19:33:45.681Z,20.30
2018-12-31T19:35:56.483Z,17.90
2018-12-31T19:38:07.308Z,19.23
2018-12-31T19:40:18.098Z,21.27
2018-12-31T19:42:29.027Z,19.93
2018-12-31T19:44:39.861Z,19.20
2018-12-31T19:46:50.663Z,20.17
2018-12-31T19:51:18.536Z,20.80
2018-12-31T19:53:29.380Z,20.13
2018-12-31T19:55:40.187Z,18.43
2018-12-31T19:57:51.050Z,31.73
2018-12-31T20:00:43.529Z,28.50
2018-12-31T20:02:54.382Z,27.20
2018-12-31T20:05:05.308Z,24.90
2018-12-31T20:07:16.117Z,19.10
2018-12-31T20:09:26.976Z,17.20
2018-12-31T20:11:37.791Z,19.40
2018-12-31T20:13:48.632Z,21.00
2018-12-31T20:15:59.442Z,21.57
2018-12-31T20:18:10.282Z,38.63
2018-12-31T20:20:21.090Z,28.47
2018-12-31T20:22:31.943Z,20.70
2018-12-31T20:24:44.677Z,20.17
2018-12-31T20:26:57.389Z,22.37
2018-12-31T20:29:08.184Z,21.30
2018-12-31T20:31:19.000Z,19.93
2018-12-31T20:34:11.475Z,19.07
2018-12-31T20:36:22.316Z,75.00
2018-12-31T20:38:33.125Z,35.37
2018-12-31T20:40:43.966Z,44.13
2018-12-31T20:42:56.709Z,57.23
2018-12-31T20:45:07.613Z,46.10
2018-12-31T20:47:18.429Z,56.87
2018-12-31T20:49:29.231Z,56.70
2018-12-31T20:51:40.067Z,44.07
2018-12-31T20:53:50.908Z,51.90
2018-12-31T20:56:01.819Z,38.53
2018-12-31T20:58:12.635Z,35.17
2018-12-31T21:00:23.440Z,30.03
2018-12-31T21:02:34.262Z,26.70
2018-12-31T21:04:45.160Z,24.53
2018-12-31T21:06:55.997Z,23.53
2018-12-31T21:09:07.024Z,23.13
2018-12-31T21:11:19.770Z,25.20
2018-12-31T21:13:30.601Z,25.03
2018-12-31T21:15:41.450Z,19.47
2018-12-31T21:17:52.274Z,16.70
2018-12-31T21:20:44.720Z,25.73
2018-12-31T21:22:55.559Z,21.77
2018-12-31T21:25:06.551Z,16.47
2018-12-31T21:27:17.431Z,20.97
2018-12-31T21:29:30.245Z,18.60
2018-12-31T21:31:41.139Z,18.47
2018-12-31T21:33:51.955Z,18.73
2018-12-31T21:36:02.856Z,13.57
2018-12-31T21:38:13.678Z,18.63
2018-12-31T21:40:24.531Z,18.47
2018-12-31T21:42:35.364Z,22.27
2018-12-31T21:44:46.186Z,28.17
2018-12-31T21:46:56.989Z,25.97
2018-12-31T21:49:07.836Z,19.30
2018-12-31T21:51:18.661Z,30.80
2018-12-31T21:53:29.500Z,38.03
2018-12-31T21:55:40.299Z,35.90
2018-12-31T21:57:51.333Z,32.70
2018-12-31T22:00:43.828Z,42.20
2018-12-31T22:02:57.220Z,42.20
2018-12-31T22:05:07.486Z,44.13
2018-12-31T22:09:50.728Z,46.73
2018-12-31T22:12:01.529Z,49.17
2018-12-31T22:14:12.351Z,41.23
2018-12-31T22:16:23.147Z,42.97
2018-12-31T22:18:33.997Z,47.33
2018-12-31T22:20:44.844Z,41.37
2018-12-31T22:22:55.672Z,41.00
2018-12-31T22:25:06.605Z,33.87
2018-12-31T22:27:19.321Z,31.57
2018-12-31T22:29:32.042Z,37.53
2018-12-31T22:31:42.883Z,40.87
2018-12-31T22:33:53.698Z,45.07
2018-12-31T22:36:04.557Z,35.63
2018-12-31T22:38:15.347Z,32.10
2018-12-31T22:40:26.172Z,39.37
2018-12-31T22:42:37.107Z,35.80
2018-12-31T22:44:47.951Z,31.07
2018-12-31T22:46:58.771Z,28.20
2018-12-31T22:49:09.557Z,35.27
2018-12-31T22:51:20.535Z,57.00
2018-12-31T22:53:31.390Z,91.83
2018-12-31T22:55:42.202Z,47.17
2018-12-31T22:57:52.990Z,42.17
2018-12-31T23:00:47.381Z,44.30
2018-12-31T23:02:58.193Z,138.43
2018-12-31T23:05:09.278Z,315.77
2018-12-31T23:07:20.107Z,280.33
2018-12-31T23:09:30.941Z,508.63
2018-12-31T23:11:41.793Z,481.07
2018-12-31T23:13:52.582Z,236.53
2018-12-31T23:16:03.404Z,218.23
2018-12-31T23:18:14.205Z,116.87
2018-12-31T23:20:26.934Z,85.20
2018-12-31T23:22:39.662Z,82.50
2018-12-31T23:24:50.478Z,68.53
2018-12-31T23:27:01.410Z,107.10
2018-12-31T23:29:12.319Z,322.53
2018-12-31T23:31:23.153Z,343.27
2018-12-31T23:33:33.971Z,249.87
2018-12-31T23:35:44.787Z,197.63
2018-12-31T23:37:55.603Z,168.13
2018-12-31T23:40:48.073Z,122.03
2018-12-31T23:43:06.165Z,159.30
2018-12-31T23:45:11.611Z,209.17
2018-12-31T23:47:22.483Z,165.47
2018-12-31T23:49:33.307Z,106.20
2018-12-31T23:51:44.108Z,86.53
2018-12-31T23:53:54.938Z,75.80
2018-12-31T23:56:05.742Z,52.57
2018-12-31T23:58:16.632Z,41.33
